Current Conditions
Clear
Conditions




Pressure
30.3 (inHG) - 1026.12 (mb)
Visibility

10.0 (mimiles) - 16.1 (km)
   Temperature
41  °F
5°C
25  °F
Dewpoint
53  %
 Humidity
   Wind Speed
12  mph
10  kts
19  km/h
5.4  m/s
   Wind Direction
 350°
Due North
   Airport Data
KBLV
Location Scott AFB / Midamerica 25 mi (40.23 km)
Metar :KBLV 182256Z AUTO 35010KT 10SM CLR 05/M03 A3030 RMK AO2 SLP266 T00501035 $
Tue 18th February 16:56 pm
   Raw Metar Info
Raw METAR is the most common format in the world for the transmission of observational weather data. It is highly standardized through the International Civil Aviation Organization (ICAO), which allows it to be understood throughout most of the world.
   API Info
Data Provided by
https://www.checkwx.com/weather/KBLV
   © Info
CSS/SVG/PHP scripts were developed by weather34.com for use in the weather34 template © 2015-2020

Guide Info provided by Metar-Wikipedia